sensor_id;sensor_type;location;lat;lon;timestamp;temperature;humidity
15359;DHT22;7779;49.596;11.070;2023-04-09T00:02:14;8.90;63.40
15359;DHT22;7779;49.596;11.070;2023-04-09T00:04:40;8.90;63.40
15359;DHT22;7779;49.596;11.070;2023-04-09T00:07:05;8.90;63.50
15359;DHT22;7779;49.596;11.070;2023-04-09T00:09:31;8.90;63.60
15359;DHT22;7779;49.596;11.070;2023-04-09T00:11:57;8.90;63.70
15359;DHT22;7779;49.596;11.070;2023-04-09T00:14:23;8.90;64.40
15359;DHT22;7779;49.596;11.070;2023-04-09T00:16:49;8.90;63.70
15359;DHT22;7779;49.596;11.070;2023-04-09T00:19:15;8.90;63.80
15359;DHT22;7779;49.596;11.070;2023-04-09T00:21:41;8.80;63.70
15359;DHT22;7779;49.596;11.070;2023-04-09T00:24:07;8.80;63.70
15359;DHT22;7779;49.596;11.070;2023-04-09T00:26:32;8.80;64.70
15359;DHT22;7779;49.596;11.070;2023-04-09T00:28:58;8.80;63.70
15359;DHT22;7779;49.596;11.070;2023-04-09T00:31:24;8.80;63.70
15359;DHT22;7779;49.596;11.070;2023-04-09T00:33:50;8.70;63.60
15359;DHT22;7779;49.596;11.070;2023-04-09T00:36:16;8.70;63.70
15359;DHT22;7779;49.596;11.070;2023-04-09T00:38:41;8.70;63.80
15359;DHT22;7779;49.596;11.070;2023-04-09T00:41:07;8.70;63.80
15359;DHT22;7779;49.596;11.070;2023-04-09T00:43:33;8.70;63.90
15359;DHT22;7779;49.596;11.070;2023-04-09T00:45:59;8.60;63.80
15359;DHT22;7779;49.596;11.070;2023-04-09T00:48:26;8.60;63.90
15359;DHT22;7779;49.596;11.070;2023-04-09T00:50:52;8.60;64.70
15359;DHT22;7779;49.596;11.070;2023-04-09T00:53:18;8.60;64.10
15359;DHT22;7779;49.596;11.070;2023-04-09T00:55:44;8.60;64.20
15359;DHT22;7779;49.596;11.070;2023-04-09T00:58:10;8.60;64.20
15359;DHT22;7779;49.596;11.070;2023-04-09T01:00:36;8.50;64.20
15359;DHT22;7779;49.596;11.070;2023-04-09T01:03:04;8.60;64.30
15359;DHT22;7779;49.596;11.070;2023-04-09T01:05:43;8.50;64.40
15359;DHT22;7779;49.596;11.070;2023-04-09T01:14:04;8.40;64.50
15359;DHT22;7779;49.596;11.070;2023-04-09T01:16:34;8.40;64.30
15359;DHT22;7779;49.596;11.070;2023-04-09T01:19:15;8.40;64.40
15359;DHT22;7779;49.596;11.070;2023-04-09T01:21:53;8.40;64.70
15359;DHT22;7779;49.596;11.070;2023-04-09T01:27:09;8.40;64.70
15359;DHT22;7779;49.596;11.070;2023-04-09T01:29:52;8.40;64.60
15359;DHT22;7779;49.596;11.070;2023-04-09T01:32:20;8.30;64.50
15359;DHT22;7779;49.596;11.070;2023-04-09T01:34:48;8.30;64.60
15359;DHT22;7779;49.596;11.070;2023-04-09T01:37:16;8.30;64.60
15359;DHT22;7779;49.596;11.070;2023-04-09T01:39:43;8.30;64.70
15359;DHT22;7779;49.596;11.070;2023-04-09T01:42:11;8.30;64.70
15359;DHT22;7779;49.596;11.070;2023-04-09T01:44:38;8.30;64.80
15359;DHT22;7779;49.596;11.070;2023-04-09T01:47:07;8.30;64.80
15359;DHT22;7779;49.596;11.070;2023-04-09T01:49:34;8.30;64.80
15359;DHT22;7779;49.596;11.070;2023-04-09T01:52:01;8.30;64.90
15359;DHT22;7779;49.596;11.070;2023-04-09T01:54:27;8.30;65.00
15359;DHT22;7779;49.596;11.070;2023-04-09T01:56:56;8.30;65.00
15359;DHT22;7779;49.596;11.070;2023-04-09T01:59:22;8.30;65.10
15359;DHT22;7779;49.596;11.070;2023-04-09T02:02:00;8.20;64.90
15359;DHT22;7779;49.596;11.070;2023-04-09T02:04:44;8.20;65.60
15359;DHT22;7779;49.596;11.070;2023-04-09T02:07:30;8.20;66.30
15359;DHT22;7779;49.596;11.070;2023-04-09T02:10:01;8.20;65.70
15359;DHT22;7779;49.596;11.070;2023-04-09T02:12:30;8.20;65.00
15359;DHT22;7779;49.596;11.070;2023-04-09T02:15:00;8.20;65.00
15359;DHT22;7779;49.596;11.070;2023-04-09T02:17:27;8.20;65.10
15359;DHT22;7779;49.596;11.070;2023-04-09T02:19:53;8.20;65.10
15359;DHT22;7779;49.596;11.070;2023-04-09T02:22:19;8.20;65.00
15359;DHT22;7779;49.596;11.070;2023-04-09T02:24:45;8.20;65.80
15359;DHT22;7779;49.596;11.070;2023-04-09T02:27:11;8.10;65.10
15359;DHT22;7779;49.596;11.070;2023-04-09T02:29:40;8.10;65.10
15359;DHT22;7779;49.596;11.070;2023-04-09T02:32:06;8.10;65.40
15359;DHT22;7779;49.596;11.070;2023-04-09T02:34:32;8.10;65.20
15359;DHT22;7779;49.596;11.070;2023-04-09T02:36:58;8.00;65.20
15359;DHT22;7779;49.596;11.070;2023-04-09T02:39:23;8.00;65.20
15359;DHT22;7779;49.596;11.070;2023-04-09T02:41:49;8.00;65.20
15359;DHT22;7779;49.596;11.070;2023-04-09T02:44:15;8.00;65.10
15359;DHT22;7779;49.596;11.070;2023-04-09T02:46:42;7.90;65.00
15359;DHT22;7779;49.596;11.070;2023-04-09T02:49:09;7.90;64.90
15359;DHT22;7779;49.596;11.070;2023-04-09T02:51:35;7.90;64.80
15359;DHT22;7779;49.596;11.070;2023-04-09T02:54:01;7.80;64.60
15359;DHT22;7779;49.596;11.070;2023-04-09T02:56:27;7.70;64.50
15359;DHT22;7779;49.596;11.070;2023-04-09T02:58:53;7.70;64.50
15359;DHT22;7779;49.596;11.070;2023-04-09T03:01:19;7.60;64.40
15359;DHT22;7779;49.596;11.070;2023-04-09T03:03:46;7.50;64.30
15359;DHT22;7779;49.596;11.070;2023-04-09T03:06:12;7.40;65.50
15359;DHT22;7779;49.596;11.070;2023-04-09T03:08:37;7.40;64.30
15359;DHT22;7779;49.596;11.070;2023-04-09T03:11:03;7.30;64.30
15359;DHT22;7779;49.596;11.070;2023-04-09T03:13:29;7.20;64.40
15359;DHT22;7779;49.596;11.070;2023-04-09T03:15:54;7.20;64.40
15359;DHT22;7779;49.596;11.070;2023-04-09T03:18:20;7.10;64.40
15359;DHT22;7779;49.596;11.070;2023-04-09T03:20:46;7.00;64.30
15359;DHT22;7779;49.596;11.070;2023-04-09T03:23:13;6.90;64.30
15359;DHT22;7779;49.596;11.070;2023-04-09T03:25:44;6.80;64.20
15359;DHT22;7779;49.596;11.070;2023-04-09T03:28:16;6.70;64.20
15359;DHT22;7779;49.596;11.070;2023-04-09T03:30:46;6.70;64.20
15359;DHT22;7779;49.596;11.070;2023-04-09T03:33:13;6.60;64.20
15359;DHT22;7779;49.596;11.070;2023-04-09T03:35:48;6.50;64.20
15359;DHT22;7779;49.596;11.070;2023-04-09T03:38:17;6.40;64.30
15359;DHT22;7779;49.596;11.070;2023-04-09T03:40:44;6.30;64.30
15359;DHT22;7779;49.596;11.070;2023-04-09T03:43:09;6.30;64.40
15359;DHT22;7779;49.596;11.070;2023-04-09T03:45:37;6.20;64.40
15359;DHT22;7779;49.596;11.070;2023-04-09T03:48:15;6.10;64.40
15359;DHT22;7779;49.596;11.070;2023-04-09T03:50:42;6.00;64.40
15359;DHT22;7779;49.596;11.070;2023-04-09T03:53:10;6.00;64.50
15359;DHT22;7779;49.596;11.070;2023-04-09T03:55:36;5.90;64.50
15359;DHT22;7779;49.596;11.070;2023-04-09T03:58:06;5.80;64.50
15359;DHT22;7779;49.596;11.070;2023-04-09T04:00:35;5.70;64.40
15359;DHT22;7779;49.596;11.070;2023-04-09T04:03:21;5.70;64.50
15359;DHT22;7779;49.596;11.070;2023-04-09T04:06:07;5.60;64.50
15359;DHT22;7779;49.596;11.070;2023-04-09T04:08:43;5.50;64.50
15359;DHT22;7779;49.596;11.070;2023-04-09T04:11:09;5.50;64.70
15359;DHT22;7779;49.596;11.070;2023-04-09T04:13:35;5.40;64.70
15359;DHT22;7779;49.596;11.070;2023-04-09T04:16:08;5.30;64.70
15359;DHT22;7779;49.596;11.070;2023-04-09T04:18:36;5.30;64.90
15359;DHT22;7779;49.596;11.070;2023-04-09T04:21:02;5.20;64.70
15359;DHT22;7779;49.596;11.070;2023-04-09T04:23:29;5.10;64.70
15359;DHT22;7779;49.596;11.070;2023-04-09T04:26:06;5.00;64.60
15359;DHT22;7779;49.596;11.070;2023-04-09T04:28:38;5.10;65.00
15359;DHT22;7779;49.596;11.070;2023-04-09T04:31:10;5.00;64.80
15359;DHT22;7779;49.596;11.070;2023-04-09T04:33:39;4.90;64.70
15359;DHT22;7779;49.596;11.070;2023-04-09T04:36:12;4.90;64.80
15359;DHT22;7779;49.596;11.070;2023-04-09T04:38:41;4.80;64.90
15359;DHT22;7779;49.596;11.070;2023-04-09T04:41:14;4.80;65.00
15359;DHT22;7779;49.596;11.070;2023-04-09T04:43:46;4.70;65.00
15359;DHT22;7779;49.596;11.070;2023-04-09T04:46:18;4.60;66.50
15359;DHT22;7779;49.596;11.070;2023-04-09T04:48:45;4.60;65.20
15359;DHT22;7779;49.596;11.070;2023-04-09T04:51:11;4.60;65.30
15359;DHT22;7779;49.596;11.070;2023-04-09T04:53:41;4.60;65.40
15359;DHT22;7779;49.596;11.070;2023-04-09T04:56:14;4.60;65.50
15359;DHT22;7779;49.596;11.070;2023-04-09T04:58:52;4.50;65.60
15359;DHT22;7779;49.596;11.070;2023-04-09T05:01:20;4.50;65.50
15359;DHT22;7779;49.596;11.070;2023-04-09T05:03:46;4.50;65.60
15359;DHT22;7779;49.596;11.070;2023-04-09T05:06:24;4.50;65.60
15359;DHT22;7779;49.596;11.070;2023-04-09T05:08:51;4.50;65.60
15359;DHT22;7779;49.596;11.070;2023-04-09T05:11:16;4.50;65.60
15359;DHT22;7779;49.596;11.070;2023-04-09T05:13:45;4.50;65.60
15359;DHT22;7779;49.596;11.070;2023-04-09T05:16:16;4.50;65.60
15359;DHT22;7779;49.596;11.070;2023-04-09T05:18:47;4.40;65.80
15359;DHT22;7779;49.596;11.070;2023-04-09T05:21:13;4.40;65.70
15359;DHT22;7779;49.596;11.070;2023-04-09T05:23:41;4.40;65.80
15359;DHT22;7779;49.596;11.070;2023-04-09T05:26:07;4.40;65.90
15359;DHT22;7779;49.596;11.070;2023-04-09T05:28:48;4.40;66.00
15359;DHT22;7779;49.596;11.070;2023-04-09T05:31:17;4.40;66.00
15359;DHT22;7779;49.596;11.070;2023-04-09T05:33:51;4.40;66.10
15359;DHT22;7779;49.596;11.070;2023-04-09T05:36:22;4.50;66.30
15359;DHT22;7779;49.596;11.070;2023-04-09T05:38:48;4.50;67.10
15359;DHT22;7779;49.596;11.070;2023-04-09T05:41:14;4.50;66.70
15359;DHT22;7779;49.596;11.070;2023-04-09T05:43:50;4.60;66.90
15359;DHT22;7779;49.596;11.070;2023-04-09T05:46:16;4.60;68.70
15359;DHT22;7779;49.596;11.070;2023-04-09T05:48:42;4.70;67.20
15359;DHT22;7779;49.596;11.070;2023-04-09T05:51:09;4.70;67.40
15359;DHT22;7779;49.596;11.070;2023-04-09T05:53:35;4.80;67.60
15359;DHT22;7779;49.596;11.070;2023-04-09T05:56:01;4.90;67.90
15359;DHT22;7779;49.596;11.070;2023-04-09T05:58:42;5.00;68.30
15359;DHT22;7779;49.596;11.070;2023-04-09T06:01:08;5.20;68.60
15359;DHT22;7779;49.596;11.070;2023-04-09T06:03:34;5.30;68.90
15359;DHT22;7779;49.596;11.070;2023-04-09T06:06:00;5.40;68.90
15359;DHT22;7779;49.596;11.070;2023-04-09T06:08:26;5.60;69.20
15359;DHT22;7779;49.596;11.070;2023-04-09T06:10:52;5.80;69.40
15359;DHT22;7779;49.596;11.070;2023-04-09T06:13:18;5.90;69.40
15359;DHT22;7779;49.596;11.070;2023-04-09T06:15:43;6.10;69.40
15359;DHT22;7779;49.596;11.070;2023-04-09T06:18:09;6.30;69.40
15359;DHT22;7779;49.596;11.070;2023-04-09T06:20:35;6.40;69.30
15359;DHT22;7779;49.596;11.070;2023-04-09T06:23:01;6.60;69.40
15359;DHT22;7779;49.596;11.070;2023-04-09T06:25:26;6.80;69.30
15359;DHT22;7779;49.596;11.070;2023-04-09T06:27:52;7.00;69.40
15359;DHT22;7779;49.596;11.070;2023-04-09T06:30:18;7.20;69.20
15359;DHT22;7779;49.596;11.070;2023-04-09T06:32:43;7.40;69.10
15359;DHT22;7779;49.596;11.070;2023-04-09T06:35:10;7.50;69.10
15359;DHT22;7779;49.596;11.070;2023-04-09T06:37:35;7.70;68.90
15359;DHT22;7779;49.596;11.070;2023-04-09T06:40:01;7.80;69.20
15359;DHT22;7779;49.596;11.070;2023-04-09T06:42:27;8.00;68.60
15359;DHT22;7779;49.596;11.070;2023-04-09T06:45:10;8.20;68.40
15359;DHT22;7779;49.596;11.070;2023-04-09T06:47:36;8.30;68.00
15359;DHT22;7779;49.596;11.070;2023-04-09T06:50:01;8.50;68.10
15359;DHT22;7779;49.596;11.070;2023-04-09T06:52:27;8.60;67.90
15359;DHT22;7779;49.596;11.070;2023-04-09T06:54:53;8.90;67.80
15359;DHT22;7779;49.596;11.070;2023-04-09T06:57:19;8.90;67.10
15359;DHT22;7779;49.596;11.070;2023-04-09T06:59:44;9.00;67.40
15359;DHT22;7779;49.596;11.070;2023-04-09T07:02:10;9.20;67.30
15359;DHT22;7779;49.596;11.070;2023-04-09T07:04:36;9.20;66.90
15359;DHT22;7779;49.596;11.070;2023-04-09T07:07:01;9.40;66.90
15359;DHT22;7779;49.596;11.070;2023-04-09T07:09:27;9.50;66.80
15359;DHT22;7779;49.596;11.070;2023-04-09T07:11:53;9.60;66.60
15359;DHT22;7779;49.596;11.070;2023-04-09T07:14:18;9.70;66.50
15359;DHT22;7779;49.596;11.070;2023-04-09T07:16:44;9.90;66.40
15359;DHT22;7779;49.596;11.070;2023-04-09T07:19:11;10.00;65.20
15359;DHT22;7779;49.596;11.070;2023-04-09T07:21:37;10.10;64.90
15359;DHT22;7779;49.596;11.070;2023-04-09T07:24:02;10.20;64.80
15359;DHT22;7779;49.596;11.070;2023-04-09T07:26:29;10.30;64.70
15359;DHT22;7779;49.596;11.070;2023-04-09T07:28:54;10.40;64.60
15359;DHT22;7779;49.596;11.070;2023-04-09T07:31:20;10.50;64.40
15359;DHT22;7779;49.596;11.070;2023-04-09T07:33:46;10.60;64.20
15359;DHT22;7779;49.596;11.070;2023-04-09T07:36:12;10.70;64.00
15359;DHT22;7779;49.596;11.070;2023-04-09T07:38:38;10.80;63.90
15359;DHT22;7779;49.596;11.070;2023-04-09T07:41:04;10.90;63.60
15359;DHT22;7779;49.596;11.070;2023-04-09T07:43:30;11.00;63.30
15359;DHT22;7779;49.596;11.070;2023-04-09T07:45:56;11.00;63.00
15359;DHT22;7779;49.596;11.070;2023-04-09T07:48:22;11.10;62.90
15359;DHT22;7779;49.596;11.070;2023-04-09T07:50:47;11.20;62.70
15359;DHT22;7779;49.596;11.070;2023-04-09T07:53:13;11.30;62.70
15359;DHT22;7779;49.596;11.070;2023-04-09T07:55:39;11.40;62.50
15359;DHT22;7779;49.596;11.070;2023-04-09T07:58:05;10.70;61.50
15359;DHT22;7779;49.596;11.070;2023-04-09T08:00:31;11.50;61.80
15359;DHT22;7779;49.596;11.070;2023-04-09T08:02:57;11.60;61.60
15359;DHT22;7779;49.596;11.070;2023-04-09T08:05:24;11.60;61.40
15359;DHT22;7779;49.596;11.070;2023-04-09T08:07:50;11.70;61.10
15359;DHT22;7779;49.596;11.070;2023-04-09T08:10:16;11.80;60.80
15359;DHT22;7779;49.596;11.070;2023-04-09T08:12:42;11.80;60.70
15359;DHT22;7779;49.596;11.070;2023-04-09T08:15:08;11.90;60.80
15359;DHT22;7779;49.596;11.070;2023-04-09T08:17:34;11.90;60.70
15359;DHT22;7779;49.596;11.070;2023-04-09T08:20:04;12.00;60.90
15359;DHT22;7779;49.596;11.070;2023-04-09T08:22:30;12.10;60.70
15359;DHT22;7779;49.596;11.070;2023-04-09T08:24:56;12.10;60.30
15359;DHT22;7779;49.596;11.070;2023-04-09T08:27:23;12.20;60.00
15359;DHT22;7779;49.596;11.070;2023-04-09T08:29:49;12.30;59.90
15359;DHT22;7779;49.596;11.070;2023-04-09T08:32:15;12.30;59.60
15359;DHT22;7779;49.596;11.070;2023-04-09T08:34:41;12.40;59.00
15359;DHT22;7779;49.596;11.070;2023-04-09T08:37:07;12.40;58.70
15359;DHT22;7779;49.596;11.070;2023-04-09T08:39:33;12.50;58.80
15359;DHT22;7779;49.596;11.070;2023-04-09T08:41:59;12.50;58.60
15359;DHT22;7779;49.596;11.070;2023-04-09T08:44:28;12.50;58.40
15359;DHT22;7779;49.596;11.070;2023-04-09T08:46:54;12.60;57.00
15359;DHT22;7779;49.596;11.070;2023-04-09T08:49:20;12.60;58.20
15359;DHT22;7779;49.596;11.070;2023-04-09T08:51:47;12.60;58.20
15359;DHT22;7779;49.596;11.070;2023-04-09T08:54:14;12.60;58.00
15359;DHT22;7779;49.596;11.070;2023-04-09T08:56:41;12.60;57.90
15359;DHT22;7779;49.596;11.070;2023-04-09T08:59:08;12.70;57.90
15359;DHT22;7779;49.596;11.070;2023-04-09T09:01:34;12.70;57.90
15359;DHT22;7779;49.596;11.070;2023-04-09T09:04:07;12.70;57.80
15359;DHT22;7779;49.596;11.070;2023-04-09T09:06:35;12.80;57.80
15359;DHT22;7779;49.596;11.070;2023-04-09T09:09:11;12.80;57.70
15359;DHT22;7779;49.596;11.070;2023-04-09T09:11:42;12.80;57.50
15359;DHT22;7779;49.596;11.070;2023-04-09T09:14:14;12.90;57.70
15359;DHT22;7779;49.596;11.070;2023-04-09T09:16:43;12.90;57.20
15359;DHT22;7779;49.596;11.070;2023-04-09T09:19:29;12.90;57.40
15359;DHT22;7779;49.596;11.070;2023-04-09T09:22:00;12.90;57.20
15359;DHT22;7779;49.596;11.070;2023-04-09T09:24:29;13.00;57.20
15359;DHT22;7779;49.596;11.070;2023-04-09T09:26:56;13.00;57.20
15359;DHT22;7779;49.596;11.070;2023-04-09T09:29:23;13.10;57.00
15359;DHT22;7779;49.596;11.070;2023-04-09T09:31:51;13.10;56.90
15359;DHT22;7779;49.596;11.070;2023-04-09T09:34:19;13.10;56.40
15359;DHT22;7779;49.596;11.070;2023-04-09T09:36:46;13.20;56.60
15359;DHT22;7779;49.596;11.070;2023-04-09T09:39:14;13.30;56.50
15359;DHT22;7779;49.596;11.070;2023-04-09T09:41:42;13.30;56.30
15359;DHT22;7779;49.596;11.070;2023-04-09T09:44:10;13.30;56.10
15359;DHT22;7779;49.596;11.070;2023-04-09T09:46:38;13.40;56.00
15359;DHT22;7779;49.596;11.070;2023-04-09T09:49:07;13.40;56.00
15359;DHT22;7779;49.596;11.070;2023-04-09T09:51:38;13.50;55.90
15359;DHT22;7779;49.596;11.070;2023-04-09T09:54:06;13.60;55.20
15359;DHT22;7779;49.596;11.070;2023-04-09T09:56:38;13.60;55.20
15359;DHT22;7779;49.596;11.070;2023-04-09T09:59:12;13.60;54.70
15359;DHT22;7779;49.596;11.070;2023-04-09T10:01:43;13.60;54.20
15359;DHT22;7779;49.596;11.070;2023-04-09T10:04:13;13.60;54.70
15359;DHT22;7779;49.596;11.070;2023-04-09T10:06:44;13.60;54.40
15359;DHT22;7779;49.596;11.070;2023-04-09T10:09:11;13.60;54.20
15359;DHT22;7779;49.596;11.070;2023-04-09T10:11:38;13.60;54.40
15359;DHT22;7779;49.596;11.070;2023-04-09T10:14:08;13.60;54.00
15359;DHT22;7779;49.596;11.070;2023-04-09T10:16:33;13.60;54.20
15359;DHT22;7779;49.596;11.070;2023-04-09T10:19:00;13.70;54.40
15359;DHT22;7779;49.596;11.070;2023-04-09T10:24:08;13.80;53.40
15359;DHT22;7779;49.596;11.070;2023-04-09T10:26:39;13.80;54.40
15359;DHT22;7779;49.596;11.070;2023-04-09T10:29:13;13.90;54.00
15359;DHT22;7779;49.596;11.070;2023-04-09T10:32:04;14.00;53.90
15359;DHT22;7779;49.596;11.070;2023-04-09T10:34:35;14.00;52.80
15359;DHT22;7779;49.596;11.070;2023-04-09T10:37:12;14.10;53.70
15359;DHT22;7779;49.596;11.070;2023-04-09T10:39:43;14.10;53.60
15359;DHT22;7779;49.596;11.070;2023-04-09T10:42:14;14.10;53.30
15359;DHT22;7779;49.596;11.070;2023-04-09T10:44:44;14.10;52.80
15359;DHT22;7779;49.596;11.070;2023-04-09T10:47:10;14.10;52.70
15359;DHT22;7779;49.596;11.070;2023-04-09T10:49:40;14.10;52.30
15359;DHT22;7779;49.596;11.070;2023-04-09T10:52:08;14.10;52.50
15359;DHT22;7779;49.596;11.070;2023-04-09T10:54:37;14.20;52.40
15359;DHT22;7779;49.596;11.070;2023-04-09T10:57:15;14.20;52.70
15359;DHT22;7779;49.596;11.070;2023-04-09T11:00:00;14.20;52.30
15359;DHT22;7779;49.596;11.070;2023-04-09T11:05:35;14.40;51.50
15359;DHT22;7779;49.596;11.070;2023-04-09T11:08:09;14.40;50.80
15359;DHT22;7779;49.596;11.070;2023-04-09T11:10:37;14.40;51.70
15359;DHT22;7779;49.596;11.070;2023-04-09T11:13:04;14.50;52.00
15359;DHT22;7779;49.596;11.070;2023-04-09T11:15:33;14.50;51.70
15359;DHT22;7779;49.596;11.070;2023-04-09T11:17:59;14.50;49.50
15359;DHT22;7779;49.596;11.070;2023-04-09T11:20:26;14.60;51.80
15359;DHT22;7779;49.596;11.070;2023-04-09T11:22:53;14.60;51.70
15359;DHT22;7779;49.596;11.070;2023-04-09T11:25:21;14.60;51.60
15359;DHT22;7779;49.596;11.070;2023-04-09T11:27:50;14.70;51.60
15359;DHT22;7779;49.596;11.070;2023-04-09T11:30:16;14.80;51.50
15359;DHT22;7779;49.596;11.070;2023-04-09T11:32:42;14.90;50.90
15359;DHT22;7779;49.596;11.070;2023-04-09T11:37:42;15.00;50.90
15359;DHT22;7779;49.596;11.070;2023-04-09T11:40:17;15.10;51.30
15359;DHT22;7779;49.596;11.070;2023-04-09T11:42:45;15.20;50.50
15359;DHT22;7779;49.596;11.070;2023-04-09T11:45:14;15.40;51.30
15359;DHT22;7779;49.596;11.070;2023-04-09T11:47:43;15.50;51.10
15359;DHT22;7779;49.596;11.070;2023-04-09T11:50:10;15.60;51.00
15359;DHT22;7779;49.596;11.070;2023-04-09T11:52:38;15.70;51.00
15359;DHT22;7779;49.596;11.070;2023-04-09T11:55:06;15.90;51.10
15359;DHT22;7779;49.596;11.070;2023-04-09T11:57:43;16.00;50.80
15359;DHT22;7779;49.596;11.070;2023-04-09T12:00:14;16.10;48.80
15359;DHT22;7779;49.596;11.070;2023-04-09T12:02:43;16.20;49.50
15359;DHT22;7779;49.596;11.070;2023-04-09T12:05:19;16.30;49.40
15359;DHT22;7779;49.596;11.070;2023-04-09T12:07:47;16.30;49.20
15359;DHT22;7779;49.596;11.070;2023-04-09T12:10:13;16.30;49.00
15359;DHT22;7779;49.596;11.070;2023-04-09T12:12:43;16.30;48.40
15359;DHT22;7779;49.596;11.070;2023-04-09T12:17:53;16.30;47.60
15359;DHT22;7779;49.596;11.070;2023-04-09T12:20:32;16.30;47.20
15359;DHT22;7779;49.596;11.070;2023-04-09T12:23:00;16.30;47.20
15359;DHT22;7779;49.596;11.070;2023-04-09T12:25:33;16.20;48.00
15359;DHT22;7779;49.596;11.070;2023-04-09T12:28:02;16.20;47.60
15359;DHT22;7779;49.596;11.070;2023-04-09T12:30:32;16.20;48.00
15359;DHT22;7779;49.596;11.070;2023-04-09T12:32:58;16.20;47.80
15359;DHT22;7779;49.596;11.070;2023-04-09T12:35:25;16.20;47.90
15359;DHT22;7779;49.596;11.070;2023-04-09T12:37:51;16.30;48.10
15359;DHT22;7779;49.596;11.070;2023-04-09T12:40:17;16.30;47.90
15359;DHT22;7779;49.596;11.070;2023-04-09T12:42:44;16.40;47.90
15359;DHT22;7779;49.596;11.070;2023-04-09T12:45:15;16.40;47.70
15359;DHT22;7779;49.596;11.070;2023-04-09T12:47:43;16.40;47.40
15359;DHT22;7779;49.596;11.070;2023-04-09T12:50:10;16.50;47.80
15359;DHT22;7779;49.596;11.070;2023-04-09T12:52:36;16.50;47.60
15359;DHT22;7779;49.596;11.070;2023-04-09T12:55:03;16.50;47.50
15359;DHT22;7779;49.596;11.070;2023-04-09T12:57:30;16.60;47.50
15359;DHT22;7779;49.596;11.070;2023-04-09T12:59:57;16.60;47.30
15359;DHT22;7779;49.596;11.070;2023-04-09T13:02:23;16.60;47.30
15359;DHT22;7779;49.596;11.070;2023-04-09T13:04:49;16.70;47.10
15359;DHT22;7779;49.596;11.070;2023-04-09T13:07:16;16.70;47.20
15359;DHT22;7779;49.596;11.070;2023-04-09T13:09:44;16.80;47.40
15359;DHT22;7779;49.596;11.070;2023-04-09T13:12:10;16.80;47.30
15359;DHT22;7779;49.596;11.070;2023-04-09T13:14:40;16.90;47.50
15359;DHT22;7779;49.596;11.070;2023-04-09T13:17:06;17.00;47.30
15359;DHT22;7779;49.596;11.070;2023-04-09T13:19:31;17.10;47.30
15359;DHT22;7779;49.596;11.070;2023-04-09T13:21:57;17.20;47.10
15359;DHT22;7779;49.596;11.070;2023-04-09T13:24:23;17.30;46.90
15359;DHT22;7779;49.596;11.070;2023-04-09T13:26:49;17.40;46.50
15359;DHT22;7779;49.596;11.070;2023-04-09T13:29:15;17.30;45.90
15359;DHT22;7779;49.596;11.070;2023-04-09T13:31:42;17.30;45.70
15359;DHT22;7779;49.596;11.070;2023-04-09T13:34:07;17.20;45.50
15359;DHT22;7779;49.596;11.070;2023-04-09T13:36:33;17.10;45.20
15359;DHT22;7779;49.596;11.070;2023-04-09T13:38:59;17.00;45.00
15359;DHT22;7779;49.596;11.070;2023-04-09T13:41:33;16.90;45.10
15359;DHT22;7779;49.596;11.070;2023-04-09T13:44:00;16.80;45.00
15359;DHT22;7779;49.596;11.070;2023-04-09T13:46:26;16.70;45.30
15359;DHT22;7779;49.596;11.070;2023-04-09T13:48:52;16.70;45.40
15359;DHT22;7779;49.596;11.070;2023-04-09T13:51:20;16.60;45.30
15359;DHT22;7779;49.596;11.070;2023-04-09T13:53:47;16.60;45.30
15359;DHT22;7779;49.596;11.070;2023-04-09T13:56:14;16.60;45.10
15359;DHT22;7779;49.596;11.070;2023-04-09T13:58:40;16.50;45.00
15359;DHT22;7779;49.596;11.070;2023-04-09T14:01:08;16.40;45.00
15359;DHT22;7779;49.596;11.070;2023-04-09T14:03:34;16.40;45.20
15359;DHT22;7779;49.596;11.070;2023-04-09T14:06:02;16.30;45.10
15359;DHT22;7779;49.596;11.070;2023-04-09T14:08:28;16.20;45.10
15359;DHT22;7779;49.596;11.070;2023-04-09T14:10:54;16.20;45.20
15359;DHT22;7779;49.596;11.070;2023-04-09T14:13:21;16.10;45.30
15359;DHT22;7779;49.596;11.070;2023-04-09T14:15:46;16.10;45.20
15359;DHT22;7779;49.596;11.070;2023-04-09T14:18:14;16.10;45.20
15359;DHT22;7779;49.596;11.070;2023-04-09T14:20:40;16.00;45.20
15359;DHT22;7779;49.596;11.070;2023-04-09T14:23:05;16.00;45.30
15359;DHT22;7779;49.596;11.070;2023-04-09T14:25:31;16.00;45.50
15359;DHT22;7779;49.596;11.070;2023-04-09T14:27:57;16.00;45.50
15359;DHT22;7779;49.596;11.070;2023-04-09T14:30:23;16.00;45.50
15359;DHT22;7779;49.596;11.070;2023-04-09T14:32:49;16.00;45.50
15359;DHT22;7779;49.596;11.070;2023-04-09T14:35:15;16.00;45.60
15359;DHT22;7779;49.596;11.070;2023-04-09T14:37:40;16.10;45.60
15359;DHT22;7779;49.596;11.070;2023-04-09T14:40:07;16.10;45.50
15359;DHT22;7779;49.596;11.070;2023-04-09T14:42:33;16.10;45.20
15359;DHT22;7779;49.596;11.070;2023-04-09T14:44:59;16.10;45.00
15359;DHT22;7779;49.596;11.070;2023-04-09T14:47:24;16.10;44.90
15359;DHT22;7779;49.596;11.070;2023-04-09T14:49:50;16.10;45.00
15359;DHT22;7779;49.596;11.070;2023-04-09T14:52:16;16.10;44.70
15359;DHT22;7779;49.596;11.070;2023-04-09T14:54:42;16.10;44.60
15359;DHT22;7779;49.596;11.070;2023-04-09T14:57:07;16.20;44.60
15359;DHT22;7779;49.596;11.070;2023-04-09T14:59:33;16.20;44.40
15359;DHT22;7779;49.596;11.070;2023-04-09T15:01:59;16.20;44.40
15359;DHT22;7779;49.596;11.070;2023-04-09T15:04:25;16.20;44.30
15359;DHT22;7779;49.596;11.070;2023-04-09T15:06:50;16.20;44.30
15359;DHT22;7779;49.596;11.070;2023-04-09T15:09:16;16.20;44.10
15359;DHT22;7779;49.596;11.070;2023-04-09T15:11:42;16.20;44.10
15359;DHT22;7779;49.596;11.070;2023-04-09T15:14:08;16.10;43.90
15359;DHT22;7779;49.596;11.070;2023-04-09T15:16:34;16.10;44.00
15359;DHT22;7779;49.596;11.070;2023-04-09T15:19:02;16.10;44.10
15359;DHT22;7779;49.596;11.070;2023-04-09T15:21:28;16.10;44.10
15359;DHT22;7779;49.596;11.070;2023-04-09T15:23:56;16.20;44.20
15359;DHT22;7779;49.596;11.070;2023-04-09T15:26:23;16.20;44.20
15359;DHT22;7779;49.596;11.070;2023-04-09T15:28:50;16.20;44.10
15359;DHT22;7779;49.596;11.070;2023-04-09T15:31:18;16.20;44.30
15359;DHT22;7779;49.596;11.070;2023-04-09T15:33:44;16.30;44.30
15359;DHT22;7779;49.596;11.070;2023-04-09T15:36:11;16.40;44.40
15359;DHT22;7779;49.596;11.070;2023-04-09T15:38:36;16.40;44.20
15359;DHT22;7779;49.596;11.070;2023-04-09T15:41:03;16.50;44.20
15359;DHT22;7779;49.596;11.070;2023-04-09T15:43:30;16.60;44.20
15359;DHT22;7779;49.596;11.070;2023-04-09T15:45:56;16.60;44.10
15359;DHT22;7779;49.596;11.070;2023-04-09T15:48:21;16.70;44.30
15359;DHT22;7779;49.596;11.070;2023-04-09T15:50:47;16.70;44.20
15359;DHT22;7779;49.596;11.070;2023-04-09T15:53:13;16.80;44.10
15359;DHT22;7779;49.596;11.070;2023-04-09T15:55:40;16.80;44.00
15359;DHT22;7779;49.596;11.070;2023-04-09T15:58:06;16.90;44.00
15359;DHT22;7779;49.596;11.070;2023-04-09T16:00:32;17.00;43.90
15359;DHT22;7779;49.596;11.070;2023-04-09T16:02:57;17.00;43.90